Share

Alstonville, New South Wales

1:51 PM EST on April 24, 2014 (GMT +1000)
INSWMCLE1 Elev 410 ft | 28.79 °S, 153.40 °E | Change Station

Current weather conditions updated 5 minutes ago

Clear
Clear
81.5 °F
Feels Like 80 °F
N
3.0
Wind Variable Wind from ENE
Gusts 7.8 mph
Sunrise 6:09 AM
Sunset 5:19 PM
Moon Waning Crescent

Today is forecast to be nearly the same temperature as yesterday.

Pressure 29.95 in
Visibility 6.2 miles
Clouds
Heat Index 80 °F
Dew Point 50 °F
Humidity 34%
Rainfall -999.00 in
Snow Depth Not available.
UV Not available.
Pollen Not available.
Air Quality Not available.
Flu Activity Not available.
METAR YBCG 240330Z AUTO 02012KT 9999 // NCD 26/18 Q1014

More Conditions Fewer Conditions

Pressure 29.95 in
Visibility 6.2 miles
Clouds
Heat Index 80 °F
Dew Point 50 °F
Humidity 34%
Rainfall -999.00 in
Snow Depth Not available.
UV Not available.
Pollen Not available.
Air Quality Not available.
Flu Activity Not available.
METAR YBCG 240330Z AUTO 02012KT 9999 // NCD 26/18 Q1014

More Conditions Fewer Conditions

10-Day Weather Forecast

Almanac

Astronomy

Apr. 24, 2014 Rise Set
Actual Time 6:09 AM EST 5:19 PM EST
Civil Twilight 5:44 AM EST 5:43 PM EST
Nautical Twilight 5:17 AM EST 6:11 PM EST
Astronomical Twilight 4:49 AM EST 6:38 PM EST
Moon 12:43 AM EST 1:49 PM EST
Length of Visible Light 11h 58m
Length of Day
11h 10m
Tomorrow will be 1m 31s shorter.
Waning Crescent, 30% of the Moon is Illuminated
Apr 23
Waning Crescent
Apr 29
New
May 6
First Quarter
May 14
Full
May 21
Last Quarter

Yesterday's Extremes

Country Highs Country Lows

Community

  • Balance
    Balance
  • Nestled In
    Nestled In
  • Stunning Sunrise
    Stunning Sunrise
  • spring flowers
    spring flowers
  • Earth Day Spectrum Ove' Blue
    Earth Day Spectrum Ove' Blue

WunderPhotos

Upload Photos

1,704,542 photos uploaded!

Nearby

Snow Depth

Not available.

Coastal Water Temperatures

Place Temperature
No Stations Reporting

Earthquake Activity

City Distance Mag. Time & Date
No recent earthquake activity has been reported nearby.
Minimum magnitude displayed is 2.5.

Nearby Weather Stations

Station Location Temp. Heat Index Dew Point Humidity Wind Precip. Elev Updated Type
McLeans Ridges 81.5 °F 80 °F 50 °F 34% ENE  at  3.0 mph 0.00 in / hr 410 ft 1:45 PM EST Normal
Ballina, Ballina 81.0 °F 82 °F 63 °F 54% ENE  at  7.0 mph 0.00 in / hr 20 ft 1:51 PM EST Rapid Fire
Lismore, Goonellabah 86.2 °F 86 °F 61 °F 43% NE  at  2.0 mph 0.00 in / hr 564 ft 1:49 PM EST Normal
Broadwater 84.7 °F 84 °F 59 °F 42% ENE  at  6.2 mph 0.00 in / hr 6 ft 1:45 PM EST Normal
Newrybar, Newrybar 78.3 °F 80 °F 64 °F 62% North  at  4.0 mph 0.00 in / hr 489 ft 1:30 PM EST Normal

Show More Stations Show Fewer Stations

What do you think?

We're not finished. Please let us know what you like, what you don't like, and what you are still missing.